Terminal Aerodrome Forecast
Issued by NWS Corpus Christi, TX

Home | Current Version | Previous Version | Text Only | Print | Product List | Glossary On
Versions: 1 2 3 4 5 6 7 8 9 10 11 12 13 14 15 16 17 18 19 20 21 22 23
000
FTUS44 KCRP 242329
TAFCRP
TAF
KCRP 242329Z 2500/2524 12015G20KT P6SM BKN020 OVC030
     FM250100 13014KT P6SM SCT025 BKN200
     FM250900 15006KT P6SM BKN020 OVC200
     FM251500 14014G18KT P6SM BKN025
     FM251900 12020G28KT P6SM BKN030 OVC040=

USA.gov is the U.S. government's official web portal to all federal, state and local government web resources and services.